Buoy 13519

sailwx.info

Track history (hours):
 
Tides and Currents Weather Stations Pressure Air Temp Water Temp Dewpoint Dewpoint Depression Visibility Wind Speed Wind Dir Waves Ship Positions

Drifting buoy 13519

Last reported at 2016-Apr-30 01:00 UTC. Time now 2016-Apr-30 05:13 UTC.
Position N 19°43' W 053°00'.

Barometer 1017.7 mb
Water temperature 26.6 ° C

Date/timePositionNaut miles runAvg speedWind from/ knotsBaromVisibWave heightAir tempDewpointWater temp
2016-Apr-30 01:00N 19°43' W 053°00'1 0.5 1017.7 26.6
2016-Apr-29 22:00N 19°44' W 052°60'1 0.9 1016.4 26.7
2016-Apr-29 21:00N 19°44' W 053°01'1 0.5 1015.7 26.7
2016-Apr-29 18:00N 19°44' W 052°59'2 0.9 1015.0 26.9
2016-Apr-29 16:00N 19°44' W 052°57'0 0.1 1016.0 26.8
2016-Apr-29 14:00N 19°44' W 052°57'0 0.4 1016.4 26.6
2016-Apr-29 13:00N 19°44' W 052°57'2 0.7 1017.1 26.6
2016-Apr-29 10:00N 19°44' W 052°55'3 1.0 1016.1 26.4
2016-Apr-29 07:00N 19°44' W 052°52'6 0.5 1015.4 26.5
2016-Apr-28 19:00N 19°45' W 052°45'2 0.5 1016.1 26.9
2016-Apr-28 14:00N 19°43' W 052°43'4 0.6 1018.4 26.5
2016-Apr-28 07:00N 19°40' W 052°40'3 0.4 1015.4 26.3
2016-Apr-28 01:00N 19°38' W 052°40'2 0.8 1018.1 26.4
2016-Apr-27 23:00N 19°36' W 052°39'0 0.1 1017.1 26.5
2016-Apr-27 20:00N 19°36' W 052°39'1 1.3 1016.1 26.6
2016-Apr-27 19:00N 19°36' W 052°38'2 0.3 1016.1 26.6
2016-Apr-27 14:00N 19°34' W 052°38'1 0.2 1017.5 26.5
2016-Apr-27 11:00N 19°35' W 052°38'0 0.2 1016.5 26.2
2016-Apr-27 09:00N 19°35' W 052°38'1 0.7 1015.1 26.2
2016-Apr-27 07:00N 19°36' W 052°39'1 0.1 1014.6 26.2
2016-Apr-27 01:00N 19°36' W 052°39'1 0.2 1015.8 26.3
2016-Apr-26 20:00N 19°36' W 052°38'0 0.5 1013.3 26.5
2016-Apr-26 19:00N 19°36' W 052°37'1 0.4 1012.5 26.4
2016-Apr-26 16:00N 19°36' W 052°36'0 0.1 1014.0 26.5
2016-Apr-26 13:00N 19°36' W 052°36'1 1.4 1014.7 26.3
2016-Apr-26 12:00N 19°35' W 052°35'0 0.1 1014.4 26.2
2016-Apr-26 10:00N 19°35' W 052°35'4 0.4 1013.2 26.1
2016-Apr-26 01:00N 19°35' W 052°31'1 0.3 1014.7 26.2
2016-Apr-25 21:00N 19°34' W 052°30'1 0.7 1012.8 26.4
2016-Apr-25 19:00N 19°33' W 052°31'2 0.4 1013.0 26.3
2016-Apr-25 14:00N 19°32' W 052°29'0 0.0 1014.7 26.2
2016-Apr-25 13:00N 19°32' W 052°29'1 0.7 1014.7 26.1
2016-Apr-25 12:00N 19°31' W 052°29'1 0.7 1014.9 26.0
2016-Apr-25 10:00N 19°30' W 052°29'1 0.6 1013.7 26.0
2016-Apr-25 08:00N 19°30' W 052°30'3 0.5 1013.4 26.0
2016-Apr-25 01:00N 19°28' W 052°27'2 0.7 1015.5 26.1
2016-Apr-24 22:00N 19°26' W 052°28'3 1.0 1014.8 26.1
2016-Apr-24 19:00N 19°23' W 052°30'3 0.3 1014.7 26.2
2016-Apr-24 08:00N 19°20' W 052°29'2 0.2 1016.2 26.0
2016-Apr-24 01:00N 19°21' W 052°30'4 0.9 1017.8 26.1
2016-Apr-23 20:00N 19°25' W 052°33'2 0.3 1016.1 26.4
2016-Apr-23 14:00N 19°25' W 052°31'2 1.6 1018.3 26.1
2016-Apr-23 13:00N 19°26' W 052°32'1 0.3 1018.4 26.0
2016-Apr-23 10:00N 19°26' W 052°33'2 0.5 1018.0 25.9
2016-Apr-23 06:00N 19°26' W 052°31'1 0.3 1017.3 26.0
2016-Apr-23 01:00N 19°26' W 052°29'0 0.2 1019.3 26.0
2016-Apr-22 23:00N 19°26' W 052°30'1 0.5 1018.5 26.0
2016-Apr-22 22:00N 19°26' W 052°30'3 0.3 1017.9 26.1
2016-Apr-22 14:00N 19°25' W 052°27'0 0.0 1019.9 26.0
2016-Apr-22 11:00N 19°25' W 052°27'0 0.0 1018.3 25.9
2016-Apr-22 10:00N 19°25' W 052°27'0 0.4 1018.0 25.9
2016-Apr-22 09:00N 19°25' W 052°27'0 0.0 1017.4 26.0
2016-Apr-22 08:00N 19°25' W 052°27'2 0.2 1017.4 26.0
2016-Apr-21 22:00N 19°24' W 052°29'0 0.2 1016.6 26.7
2016-Apr-21 21:00N 19°24' W 052°30'2 0.3 1016.3 26.8
2016-Apr-21 16:00N 19°24' W 052°31'0 0.2 1016.4 26.8
2016-Apr-21 14:00N 19°24' W 052°31'1 1.5 1017.0 26.3
2016-Apr-21 13:00N 19°25' W 052°32'1 1.0 1016.6 26.0
2016-Apr-21 12:00N 19°24' W 052°33'1 0.6 1016.3 25.8
2016-Apr-21 10:00N 19°25' W 052°33'1 0.5 1015.4 25.7
2016-Apr-21 08:00N 19°26' W 052°33'2 0.5 1014.4 25.7
2016-Apr-21 05:00N 19°26' W 052°35'8 0.5 1014.1 25.7
2016-Apr-20 14:00N 19°33' W 052°37'1 1.1 1015.8 25.8
2016-Apr-20 13:00N 19°32' W 052°38'1 0.1 1015.5 25.7
2016-Apr-20 07:00N 19°32' W 052°37'2 0.3 1012.8 25.8
2016-Apr-20 01:00N 19°33' W 052°36'   1015.3 25.8
Track history (hours):
 
Tides and Currents Weather Stations Pressure Air Temp Water Temp Dewpoint Dewpoint Depression Visibility Wind Speed Wind Dir Waves Ship Positions

Drifting buoy 13519

Last reported at 2016-Apr-30 01:00 UTC. Time now 2016-Apr-30 05:13 UTC.
Position N 19°43' W 053°00'.

Barometer 1017.7 mb
Water temperature 26.6 ° C

Date/timePositionNaut miles runAvg speedWind from/ knotsBaromVisibWave heightAir tempDewpointWater temp
2016-Apr-30 01:00N 19°43' W 053°00'1 0.5 1017.7 26.6
2016-Apr-29 22:00N 19°44' W 052°60'1 0.9 1016.4 26.7
2016-Apr-29 21:00N 19°44' W 053°01'1 0.5 1015.7 26.7
2016-Apr-29 18:00N 19°44' W 052°59'2 0.9 1015.0 26.9
2016-Apr-29 16:00N 19°44' W 052°57'0 0.1 1016.0 26.8
2016-Apr-29 14:00N 19°44' W 052°57'0 0.4 1016.4 26.6
2016-Apr-29 13:00N 19°44' W 052°57'2 0.7 1017.1 26.6
2016-Apr-29 10:00N 19°44' W 052°55'3 1.0 1016.1 26.4
2016-Apr-29 07:00N 19°44' W 052°52'6 0.5 1015.4 26.5
2016-Apr-28 19:00N 19°45' W 052°45'2 0.5 1016.1 26.9
2016-Apr-28 14:00N 19°43' W 052°43'4 0.6 1018.4 26.5
2016-Apr-28 07:00N 19°40' W 052°40'3 0.4 1015.4 26.3
2016-Apr-28 01:00N 19°38' W 052°40'2 0.8 1018.1 26.4
2016-Apr-27 23:00N 19°36' W 052°39'0 0.1 1017.1 26.5
2016-Apr-27 20:00N 19°36' W 052°39'1 1.3 1016.1 26.6
2016-Apr-27 19:00N 19°36' W 052°38'2 0.3 1016.1 26.6
2016-Apr-27 14:00N 19°34' W 052°38'1 0.2 1017.5 26.5
2016-Apr-27 11:00N 19°35' W 052°38'0 0.2 1016.5 26.2
2016-Apr-27 09:00N 19°35' W 052°38'1 0.7 1015.1 26.2
2016-Apr-27 07:00N 19°36' W 052°39'1 0.1 1014.6 26.2
2016-Apr-27 01:00N 19°36' W 052°39'1 0.2 1015.8 26.3
2016-Apr-26 20:00N 19°36' W 052°38'0 0.5 1013.3 26.5
2016-Apr-26 19:00N 19°36' W 052°37'1 0.4 1012.5 26.4
2016-Apr-26 16:00N 19°36' W 052°36'0 0.1 1014.0 26.5
2016-Apr-26 13:00N 19°36' W 052°36'1 1.4 1014.7 26.3
2016-Apr-26 12:00N 19°35' W 052°35'0 0.1 1014.4 26.2
2016-Apr-26 10:00N 19°35' W 052°35'4 0.4 1013.2 26.1
2016-Apr-26 01:00N 19°35' W 052°31'1 0.3 1014.7 26.2
2016-Apr-25 21:00N 19°34' W 052°30'1 0.7 1012.8 26.4
2016-Apr-25 19:00N 19°33' W 052°31'2 0.4 1013.0 26.3
2016-Apr-25 14:00N 19°32' W 052°29'0 0.0 1014.7 26.2
2016-Apr-25 13:00N 19°32' W 052°29'1 0.7 1014.7 26.1
2016-Apr-25 12:00N 19°31' W 052°29'1 0.7 1014.9 26.0
2016-Apr-25 10:00N 19°30' W 052°29'1 0.6 1013.7 26.0
2016-Apr-25 08:00N 19°30' W 052°30'3 0.5 1013.4 26.0
2016-Apr-25 01:00N 19°28' W 052°27'2 0.7 1015.5 26.1
2016-Apr-24 22:00N 19°26' W 052°28'3 1.0 1014.8 26.1
2016-Apr-24 19:00N 19°23' W 052°30'3 0.3 1014.7 26.2
2016-Apr-24 08:00N 19°20' W 052°29'2 0.2 1016.2 26.0
2016-Apr-24 01:00N 19°21' W 052°30'4 0.9 1017.8 26.1
2016-Apr-23 20:00N 19°25' W 052°33'2 0.3 1016.1 26.4
2016-Apr-23 14:00N 19°25' W 052°31'2 1.6 1018.3 26.1
2016-Apr-23 13:00N 19°26' W 052°32'1 0.3 1018.4 26.0
2016-Apr-23 10:00N 19°26' W 052°33'2 0.5 1018.0 25.9
2016-Apr-23 06:00N 19°26' W 052°31'1 0.3 1017.3 26.0
2016-Apr-23 01:00N 19°26' W 052°29'0 0.2 1019.3 26.0
2016-Apr-22 23:00N 19°26' W 052°30'1 0.5 1018.5 26.0
2016-Apr-22 22:00N 19°26' W 052°30'3 0.3 1017.9 26.1
2016-Apr-22 14:00N 19°25' W 052°27'0 0.0 1019.9 26.0
2016-Apr-22 11:00N 19°25' W 052°27'0 0.0 1018.3 25.9
2016-Apr-22 10:00N 19°25' W 052°27'0 0.4 1018.0 25.9
2016-Apr-22 09:00N 19°25' W 052°27'0 0.0 1017.4 26.0
2016-Apr-22 08:00N 19°25' W 052°27'2 0.2 1017.4 26.0
2016-Apr-21 22:00N 19°24' W 052°29'0 0.2 1016.6 26.7
2016-Apr-21 21:00N 19°24' W 052°30'2 0.3 1016.3 26.8
2016-Apr-21 16:00N 19°24' W 052°31'0 0.2 1016.4 26.8
2016-Apr-21 14:00N 19°24' W 052°31'1 1.5 1017.0 26.3
2016-Apr-21 13:00N 19°25' W 052°32'1 1.0 1016.6 26.0
2016-Apr-21 12:00N 19°24' W 052°33'1 0.6 1016.3 25.8
2016-Apr-21 10:00N 19°25' W 052°33'1 0.5 1015.4 25.7
2016-Apr-21 08:00N 19°26' W 052°33'2 0.5 1014.4 25.7
2016-Apr-21 05:00N 19°26' W 052°35'8 0.5 1014.1 25.7
2016-Apr-20 14:00N 19°33' W 052°37'1 1.1 1015.8 25.8
2016-Apr-20 13:00N 19°32' W 052°38'1 0.1 1015.5 25.7
2016-Apr-20 07:00N 19°32' W 052°37'2 0.3 1012.8 25.8
2016-Apr-20 01:00N 19°33' W 052°36'   1015.3 25.8

Dump ship's entire track history